Hudson, Wisconsin
Current Conditions -  °F | °C
As of 8:11 PM on Thursday 20 Nov 2014 (Local Time) from K21D Reporting Station
Clear Clear  
Wind Chill:   Ceiling: Unl
Heat Index:   Visibility: 10mi
Dew Point:   Wind: 0mph
Humidity: 85%   Direction: NA
Pressure: 30.23"   Gusts: NA
Location:  44.98°N, 92.76°W
Report Text: K21D 210211Z AUTO 00000KT 10SM CLR M16/M18 A3023 RMK AO2
Loading
Personal Weather Stations






























Interactive Weather Map New forecast layout! Learn more

10-Day Weather Forecast

Advertisements
Track Severe Weather on mobile